createdAt,value
2022-08-22T00:02:42.243Z,1.77
2022-08-22T00:02:44.827Z,4.03
2022-08-22T00:03:03.075Z,5.75
2022-08-22T02:17:01.928Z,4.82
2022-08-22T03:37:21.358Z,5.38
2022-08-22T04:03:26.425Z,3.58
2022-08-22T04:36:27.563Z,4.22
2022-08-22T04:39:35.278Z,3.55
2022-08-22T04:42:55.267Z,2.78
2022-08-22T04:45:56.493Z,6.30
2022-08-22T04:48:54.903Z,3.08
2022-08-22T04:51:58.381Z,4.38
2022-08-22T04:54:39.326Z,6.63
2022-08-22T04:57:54.944Z,4.10
2022-08-22T05:00:26.359Z,5.60
2022-08-22T05:03:03.191Z,3.13
2022-08-22T05:05:56.560Z,4.93
2022-08-22T05:08:56.224Z,4.55
2022-08-22T05:11:25.843Z,4.93
2022-08-22T05:14:01.672Z,5.10
2022-08-22T05:16:59.709Z,6.88
2022-08-22T05:19:56.560Z,4.40
2022-08-22T05:22:57.583Z,5.13
2022-08-22T05:25:33.596Z,5.18
2022-08-22T05:28:35.721Z,4.15
2022-08-22T05:31:11.363Z,2.90
2022-08-22T05:34:04.670Z,3.92
2022-08-22T05:37:11.320Z,4.20
2022-08-22T05:40:14.857Z,5.53
2022-08-22T06:33:13.915Z,6.50
2022-08-22T06:36:59.135Z,6.03
2022-08-22T06:39:57.082Z,4.93
2022-08-22T06:43:00.862Z,5.22
2022-08-22T06:45:58.107Z,5.75
2022-08-22T06:49:00.407Z,6.68
2022-08-22T06:51:36.070Z,4.35
2022-08-22T06:54:08.437Z,5.82
2022-08-22T06:57:00.273Z,5.30
2022-08-22T06:59:32.632Z,6.20
2022-08-22T07:02:28.561Z,3.90
2022-08-22T07:05:00.237Z,5.72
2022-08-22T07:07:31.762Z,5.38
2022-08-22T07:10:00.150Z,4.13
2022-08-22T07:12:57.434Z,4.78
2022-08-22T07:15:56.477Z,4.07
2022-08-22T07:18:30.876Z,3.55
2022-08-22T07:21:09.247Z,2.65
2022-08-22T07:24:02.206Z,3.75
2022-08-22T07:26:56.790Z,3.20
2022-08-22T07:30:04.002Z,2.53
2022-08-22T07:33:18.975Z,3.05
2022-08-22T07:35:56.326Z,2.45
2022-08-22T07:38:37.620Z,2.13
2022-08-22T07:44:33.331Z,2.17
2022-08-22T07:47:11.796Z,1.75
2022-08-22T07:50:05.838Z,2.53
2022-08-22T07:53:05.449Z,2.83
2022-08-22T07:55:34.445Z,2.08
2022-08-22T07:58:58.073Z,2.03
2022-08-22T08:01:28.148Z,1.83
2022-08-22T10:27:39.101Z,1.38
2022-08-22T11:21:31.573Z,2.08
2022-08-22T11:39:56.500Z,1.52
2022-08-22T12:21:33.604Z,2.00
2022-08-22T12:35:37.216Z,1.35
2022-08-22T12:42:30.882Z,1.10
2022-08-22T12:51:17.620Z,1.10
2022-08-22T13:00:59.571Z,0.77
2022-08-22T13:04:05.046Z,1.20
2022-08-22T13:06:59.515Z,1.77
2022-08-22T13:09:32.492Z,2.33
2022-08-22T13:12:24.450Z,1.27
2022-08-22T13:15:57.263Z,1.05
2022-08-22T13:18:31.611Z,1.48
2022-08-22T13:21:11.546Z,2.15
2022-08-22T13:24:12.220Z,1.02
2022-08-22T13:27:07.021Z,3.10
2022-08-22T13:30:03.914Z,1.52
2022-08-22T13:36:55.712Z,2.30
2022-08-22T13:39:59.273Z,4.10
2022-08-22T13:42:31.409Z,2.15
2022-08-22T13:45:06.139Z,0.90
2022-08-22T13:48:03.870Z,2.00
2022-08-22T13:50:58.364Z,1.35
2022-08-22T13:53:39.524Z,2.45
2022-08-22T13:56:21.632Z,1.10
2022-08-22T13:59:04.618Z,2.15
2022-08-22T14:02:57.489Z,2.08
2022-08-22T14:06:06.303Z,1.35
2022-08-22T14:09:36.054Z,1.13
2022-08-22T14:12:22.221Z,2.05
2022-08-22T14:15:12.411Z,2.35
2022-08-22T14:17:53.729Z,2.00
2022-08-22T14:20:33.466Z,1.17
2022-08-22T14:23:34.513Z,2.05
2022-08-22T14:26:37.305Z,1.98
2022-08-22T14:29:22.059Z,1.55
2022-08-22T14:32:09.428Z,1.45
2022-08-22T14:35:06.020Z,1.67
2022-08-22T14:38:17.257Z,1.33
2022-08-22T14:41:06.476Z,3.10
2022-08-22T14:43:59.771Z,1.42
2022-08-22T14:46:57.391Z,2.75
2022-08-22T14:50:00.973Z,1.42
2022-08-22T14:55:31.703Z,2.03
2022-08-22T14:58:26.468Z,3.88
2022-08-22T15:01:08.012Z,3.40
2022-08-22T15:03:56.675Z,2.60
2022-08-22T15:06:57.935Z,2.70
2022-08-22T15:10:06.138Z,2.63
2022-08-22T15:12:57.068Z,2.15
2022-08-22T15:16:03.503Z,1.67
2022-08-22T15:18:59.098Z,1.80
2022-08-22T15:21:36.965Z,1.60
2022-08-22T15:24:23.659Z,1.50
2022-08-22T15:26:59.324Z,1.08
2022-08-22T15:35:30.331Z,1.83
2022-08-22T15:48:33.454Z,2.45
2022-08-22T16:02:10.373Z,2.35
2022-08-22T16:05:36.652Z,3.67
2022-08-22T16:08:33.169Z,3.38
2022-08-22T16:11:33.605Z,3.15
2022-08-22T16:21:32.340Z,2.38
2022-08-22T16:24:02.985Z,2.40
2022-08-22T16:26:31.378Z,2.63
2022-08-22T16:32:29.233Z,4.70
2022-08-22T16:35:03.073Z,2.95
2022-08-22T16:51:36.049Z,3.28
2022-08-22T16:54:41.490Z,2.65
2022-08-22T17:00:57.713Z,3.67
2022-08-22T17:08:08.177Z,4.53
2022-08-22T17:11:50.269Z,6.22
2022-08-22T17:15:31.515Z,4.38
2022-08-22T17:18:41.495Z,4.63
2022-08-22T17:25:41.453Z,3.90
2022-08-22T17:28:38.226Z,4.95
2022-08-22T17:31:22.649Z,4.15
2022-08-22T17:40:43.570Z,3.78
2022-08-22T17:43:49.458Z,5.15
2022-08-22T17:46:30.008Z,4.82
2022-08-22T17:49:30.081Z,7.65
2022-08-22T17:52:09.091Z,5.93
2022-08-22T17:54:58.351Z,6.38
2022-08-22T17:57:56.491Z,4.75
2022-08-22T18:04:06.327Z,4.13
2022-08-22T18:07:29.650Z,5.93
2022-08-22T18:10:31.715Z,4.45
2022-08-22T18:14:18.262Z,4.15
2022-08-22T18:17:00.028Z,4.75
2022-08-22T18:24:06.723Z,4.90
2022-08-22T18:28:00.928Z,6.20
2022-08-22T18:31:08.040Z,5.68
2022-08-22T18:38:02.655Z,6.70
2022-08-22T18:41:08.565Z,6.95
2022-08-22T18:43:40.787Z,7.90
2022-08-22T18:47:18.743Z,4.78
2022-08-22T18:50:00.076Z,7.28
2022-08-22T18:53:05.545Z,6.07
2022-08-22T18:56:09.052Z,6.82
2022-08-22T19:03:00.114Z,6.93
2022-08-22T19:05:49.180Z,6.35
2022-08-22T19:09:00.797Z,3.80
2022-08-22T19:12:00.996Z,4.25
2022-08-22T19:15:06.780Z,4.27
2022-08-22T19:18:08.750Z,6.05
2022-08-22T19:25:03.274Z,3.80
2022-08-22T19:27:42.117Z,4.93
2022-08-22T19:31:04.314Z,3.97
2022-08-22T19:34:09.387Z,5.95
2022-08-22T19:38:04.368Z,4.35
2022-08-22T19:41:06.131Z,6.25
2022-08-22T19:44:05.102Z,7.60
2022-08-22T19:51:12.251Z,5.13
2022-08-22T19:54:16.484Z,3.95
2022-08-22T19:57:11.866Z,4.78
2022-08-22T20:00:43.624Z,3.97
2022-08-22T20:04:16.438Z,6.70
2022-08-22T20:07:03.032Z,3.75
2022-08-22T20:14:03.821Z,3.95
2022-08-22T20:17:06.177Z,3.88
2022-08-22T20:20:19.394Z,5.90
2022-08-22T20:23:09.187Z,3.92
2022-08-22T20:29:08.397Z,4.07
2022-08-22T20:32:05.714Z,3.88
2022-08-22T20:35:06.622Z,9.05
2022-08-22T20:41:34.843Z,5.03
2022-08-22T20:44:36.689Z,5.00
2022-08-22T20:47:19.512Z,3.22
2022-08-22T20:50:12.837Z,5.47
2022-08-22T20:53:10.203Z,4.72
2022-08-22T20:55:38.681Z,5.35
2022-08-22T20:59:09.199Z,4.90
2022-08-22T21:02:35.147Z,3.97
2022-08-22T21:17:39.296Z,2.53
2022-08-22T21:20:38.873Z,0.77
2022-08-22T21:23:07.207Z,1.83
2022-08-22T21:26:37.453Z,1.23
2022-08-22T21:29:17.838Z,1.27
2022-08-22T21:32:18.275Z,0.95
2022-08-22T21:41:08.384Z,2.13
2022-08-22T21:50:42.315Z,0.43
2022-08-22T21:54:18.373Z,0.75
2022-08-22T22:01:45.836Z,0.77
